createdAt,value
2023-05-05T00:00:56.974Z,12.55
2023-05-05T00:03:25.666Z,12.47
2023-05-05T00:05:54.564Z,12.45
2023-05-05T00:08:22.621Z,12.40
2023-05-05T00:10:52.028Z,12.52
2023-05-05T00:13:20.949Z,12.29
2023-05-05T00:15:50.077Z,12.10
2023-05-05T00:18:18.235Z,12.13
2023-05-05T00:20:49.463Z,12.24
2023-05-05T00:23:17.007Z,12.33
2023-05-05T00:25:44.529Z,12.15
2023-05-05T00:28:14.098Z,12.33
2023-05-05T00:30:41.531Z,12.23
2023-05-05T00:33:10.334Z,12.18
2023-05-05T00:35:37.668Z,12.09
2023-05-05T00:38:05.178Z,12.11
2023-05-05T00:40:33.037Z,12.05
2023-05-05T00:43:00.427Z,11.98
2023-05-05T00:45:28.241Z,11.96
2023-05-05T00:47:57.941Z,12.04
2023-05-05T00:50:27.448Z,11.93
2023-05-05T00:52:57.002Z,11.93
2023-05-05T00:55:24.685Z,11.91
2023-05-05T00:57:52.340Z,11.81
2023-05-05T01:00:19.696Z,11.67
2023-05-05T01:02:47.319Z,11.70
2023-05-05T01:05:16.122Z,11.75
2023-05-05T01:07:43.610Z,11.71
2023-05-05T01:10:22.203Z,11.63
2023-05-05T01:13:00.371Z,11.65
2023-05-05T01:15:36.803Z,11.48
2023-05-05T01:18:11.796Z,11.51
2023-05-05T01:20:49.631Z,11.42
2023-05-05T01:23:35.091Z,11.36
2023-05-05T01:26:33.060Z,11.34
2023-05-05T01:29:29.286Z,11.40
2023-05-05T01:32:01.778Z,11.50
2023-05-05T01:35:02.300Z,11.47
2023-05-05T01:37:38.462Z,11.42
2023-05-05T01:40:08.351Z,11.44
2023-05-05T01:42:38.182Z,11.32
2023-05-05T01:45:08.233Z,11.13
2023-05-05T01:47:37.864Z,11.04
2023-05-05T01:50:06.820Z,11.08
2023-05-05T01:52:36.480Z,11.00
2023-05-05T01:55:05.127Z,10.95
2023-05-05T01:57:33.260Z,10.98
2023-05-05T02:00:05.975Z,10.92
2023-05-05T02:02:44.649Z,10.91
2023-05-05T02:05:12.087Z,10.90
2023-05-05T02:07:40.000Z,10.90
2023-05-05T02:10:08.314Z,10.86
2023-05-05T02:12:37.581Z,10.86
2023-05-05T02:15:05.433Z,10.97
2023-05-05T02:17:33.152Z,11.09
2023-05-05T02:20:02.219Z,10.94
2023-05-05T02:22:29.585Z,10.86
2023-05-05T02:24:57.175Z,10.87
2023-05-05T02:27:24.563Z,10.91
2023-05-05T02:29:59.178Z,10.85
2023-05-05T02:32:38.187Z,10.78
2023-05-05T02:35:32.656Z,10.83
2023-05-05T02:38:04.882Z,10.92
2023-05-05T02:40:34.532Z,10.91
2023-05-05T02:43:08.263Z,10.84
2023-05-05T02:45:35.706Z,10.80
2023-05-05T02:48:04.256Z,10.79
2023-05-05T02:50:32.298Z,10.82
2023-05-05T02:53:00.531Z,10.74
2023-05-05T02:55:33.344Z,10.93
2023-05-05T02:58:03.235Z,11.09
2023-05-05T03:00:41.753Z,11.15
2023-05-05T03:03:26.462Z,11.16
2023-05-05T03:06:02.788Z,11.15
2023-05-05T03:08:37.208Z,11.05
2023-05-05T03:11:07.437Z,10.98
2023-05-05T03:13:37.337Z,11.07
2023-05-05T03:16:06.892Z,11.10
2023-05-05T03:18:34.826Z,11.11
2023-05-05T03:21:08.633Z,11.12
2023-05-05T03:23:36.944Z,11.09
2023-05-05T03:26:05.028Z,11.04
2023-05-05T03:28:32.621Z,10.83
2023-05-05T03:31:01.149Z,10.93
2023-05-05T03:33:28.378Z,11.13
2023-05-05T03:35:56.088Z,11.15
2023-05-05T03:38:23.489Z,10.98
2023-05-05T03:40:50.875Z,11.04
2023-05-05T03:43:19.666Z,11.07
2023-05-05T03:45:47.583Z,11.29
2023-05-05T03:48:15.206Z,11.77
2023-05-05T03:50:45.130Z,11.88
2023-05-05T03:53:13.109Z,12.16
2023-05-05T03:55:41.390Z,12.16
2023-05-05T03:58:08.530Z,12.01
2023-05-05T04:00:36.103Z,11.89
2023-05-05T04:03:04.278Z,11.89
2023-05-05T04:05:31.556Z,12.07
2023-05-05T04:07:59.109Z,12.22
2023-05-05T04:10:26.786Z,12.24
2023-05-05T04:12:54.440Z,12.28
2023-05-05T04:15:22.123Z,12.34
2023-05-05T04:17:50.029Z,12.48
2023-05-05T04:20:17.881Z,12.51
2023-05-05T04:22:45.068Z,12.54
2023-05-05T04:25:12.600Z,12.67
2023-05-05T04:27:39.784Z,12.80
2023-05-05T04:30:08.478Z,12.75
2023-05-05T04:32:37.141Z,12.73
2023-05-05T04:35:05.205Z,12.83
2023-05-05T04:37:32.681Z,12.90
2023-05-05T04:40:00.537Z,13.08
2023-05-05T04:42:28.530Z,13.25
2023-05-05T04:44:55.854Z,13.46
2023-05-05T04:47:23.627Z,13.74
2023-05-05T04:49:51.331Z,14.06
2023-05-05T04:52:18.770Z,14.34
2023-05-05T04:54:46.253Z,14.62
2023-05-05T04:57:13.406Z,14.22
2023-05-05T04:59:41.644Z,14.28
2023-05-05T05:02:09.300Z,14.09
2023-05-05T05:04:36.688Z,14.43
2023-05-05T05:07:03.989Z,13.67
2023-05-05T05:09:31.723Z,13.74
2023-05-05T05:12:00.701Z,13.54
2023-05-05T05:14:28.341Z,13.57
2023-05-05T05:16:56.136Z,13.81
2023-05-05T05:19:23.788Z,13.69
2023-05-05T05:21:51.000Z,14.01
2023-05-05T05:24:18.775Z,13.92
2023-05-05T05:26:47.207Z,14.17
2023-05-05T05:29:14.814Z,14.28
2023-05-05T05:31:42.559Z,15.45
2023-05-05T05:34:12.606Z,17.40
2023-05-05T05:36:40.920Z,21.26
2023-05-05T05:39:08.502Z,21.48
2023-05-05T05:41:35.794Z,22.94
2023-05-05T05:44:03.505Z,24.20
2023-05-05T05:46:31.661Z,24.37
2023-05-05T05:48:59.056Z,26.06
2023-05-05T05:51:26.617Z,21.98
2023-05-05T05:53:55.413Z,23.47
2023-05-05T05:56:23.625Z,22.99
2023-05-05T05:58:51.937Z,22.94
2023-05-05T06:01:19.950Z,23.05
2023-05-05T06:03:47.927Z,23.21
2023-05-05T06:06:16.508Z,22.70
2023-05-05T06:08:44.696Z,22.77
2023-05-05T06:11:12.405Z,22.29
2023-05-05T06:13:40.030Z,23.70
2023-05-05T06:16:08.061Z,24.73
2023-05-05T06:18:36.956Z,25.26
2023-05-05T06:21:04.618Z,25.98
2023-05-05T06:23:32.133Z,26.38
2023-05-05T06:26:00.066Z,27.74
2023-05-05T06:28:27.483Z,26.04
2023-05-05T06:30:54.709Z,25.19
2023-05-05T06:33:22.443Z,25.08
2023-05-05T06:35:52.074Z,25.12
2023-05-05T06:38:19.403Z,26.03
2023-05-05T06:40:50.065Z,22.71
2023-05-05T06:43:17.700Z,25.17
2023-05-05T06:45:46.126Z,25.50
2023-05-05T06:48:13.988Z,24.04
2023-05-05T06:50:42.277Z,24.47
2023-05-05T06:53:09.679Z,23.32
2023-05-05T06:55:37.406Z,22.90
2023-05-05T06:58:04.649Z,25.92
2023-05-05T07:00:32.132Z,24.90
2023-05-05T07:02:59.968Z,24.02
2023-05-05T07:05:27.369Z,26.99
2023-05-05T07:07:55.674Z,25.11
2023-05-05T07:10:24.384Z,23.47
2023-05-05T07:12:52.575Z,23.82
2023-05-05T07:15:28.610Z,26.20
2023-05-05T07:21:27.799Z,27.79
2023-05-05T07:23:55.348Z,27.52
2023-05-05T07:26:22.655Z,27.31
2023-05-05T07:28:52.143Z,27.14
2023-05-05T07:31:20.128Z,27.23
2023-05-05T07:37:06.449Z,27.79
2023-05-05T07:39:34.316Z,28.05
2023-05-05T07:45:31.905Z,24.88
2023-05-05T07:47:59.639Z,26.47
2023-05-05T07:50:27.244Z,26.49
2023-05-05T07:53:02.346Z,27.18
2023-05-05T07:55:33.965Z,28.36
2023-05-05T07:58:01.342Z,27.48
2023-05-05T08:00:28.508Z,25.91
2023-05-05T08:02:56.134Z,26.92
2023-05-05T08:05:23.652Z,25.71
2023-05-05T08:07:50.947Z,26.14
2023-05-05T08:10:18.713Z,27.26
2023-05-05T08:12:46.022Z,28.01
2023-05-05T08:15:13.350Z,27.01
2023-05-05T08:17:49.196Z,26.58
2023-05-05T08:20:17.856Z,27.42
2023-05-05T08:22:45.895Z,27.63
2023-05-05T08:25:14.241Z,27.59
2023-05-05T08:27:42.562Z,27.28
2023-05-05T08:30:10.837Z,27.29
2023-05-05T08:32:38.716Z,25.43
2023-05-05T08:35:07.278Z,25.98
2023-05-05T08:37:37.943Z,26.95
2023-05-05T08:40:06.192Z,27.02
2023-05-05T08:42:38.502Z,26.86
2023-05-05T08:45:08.929Z,26.37
2023-05-05T08:47:37.361Z,26.95
2023-05-05T08:50:08.087Z,27.24
2023-05-05T08:52:41.419Z,26.68
2023-05-05T08:55:24.585Z,26.97
2023-05-05T08:57:57.018Z,25.25
2023-05-05T09:00:27.251Z,26.67
2023-05-05T09:02:57.699Z,26.55
2023-05-05T09:05:25.936Z,25.30
2023-05-05T09:07:53.184Z,24.29
2023-05-05T09:13:54.985Z,22.87
2023-05-05T09:16:23.197Z,21.96
2023-05-05T09:18:50.532Z,22.60
2023-05-05T09:21:25.459Z,23.22
2023-05-05T09:24:12.477Z,23.36
2023-05-05T09:26:44.184Z,23.41
2023-05-05T09:29:19.617Z,23.01
2023-05-05T09:32:05.704Z,23.91
2023-05-05T09:34:35.199Z,24.04
2023-05-05T09:37:02.542Z,25.39
2023-05-05T09:39:29.942Z,26.38
2023-05-05T09:41:58.648Z,26.64
2023-05-05T09:44:40.159Z,26.88
2023-05-05T09:47:18.093Z,27.15
2023-05-05T09:49:59.259Z,27.67
2023-05-05T09:52:26.868Z,28.26
2023-05-05T09:54:58.233Z,27.54
2023-05-05T09:57:33.422Z,27.51
2023-05-05T10:00:02.553Z,26.33
2023-05-05T10:02:35.129Z,25.58
2023-05-05T10:05:13.105Z,25.29
2023-05-05T10:07:42.275Z,25.29
2023-05-05T10:10:15.094Z,25.27
2023-05-05T10:12:43.208Z,25.41
2023-05-05T10:15:12.063Z,25.07
2023-05-05T10:18:02.450Z,23.63
2023-05-05T10:20:36.672Z,23.00
2023-05-05T10:23:06.393Z,22.70
2023-05-05T10:25:35.918Z,21.81
2023-05-05T10:28:06.934Z,21.30
2023-05-05T10:30:39.766Z,21.43
2023-05-05T10:33:30.362Z,21.76
2023-05-05T10:36:02.556Z,21.54
2023-05-05T10:38:34.119Z,21.65
2023-05-05T10:41:06.772Z,21.88
2023-05-05T10:43:58.603Z,22.27
2023-05-05T10:46:29.726Z,23.22
2023-05-05T10:49:25.967Z,23.29
2023-05-05T10:52:08.985Z,23.29
2023-05-05T10:54:42.460Z,23.03
2023-05-05T10:57:22.745Z,23.02
2023-05-05T10:59:51.445Z,22.91
2023-05-05T11:02:48.078Z,23.16
2023-05-05T11:05:22.755Z,23.31
2023-05-05T11:07:56.838Z,23.43
2023-05-05T11:10:32.102Z,23.15
2023-05-05T11:13:19.897Z,23.00
2023-05-05T11:15:54.379Z,23.06
2023-05-05T11:18:36.520Z,22.94
2023-05-05T11:21:07.737Z,22.84
2023-05-05T11:23:35.374Z,22.83
2023-05-05T11:26:02.703Z,23.16
2023-05-05T11:28:31.547Z,22.73
2023-05-05T11:31:01.978Z,23.10
2023-05-05T11:33:29.277Z,22.89
2023-05-05T11:36:07.333Z,22.77
2023-05-05T11:39:02.793Z,23.03
2023-05-05T11:41:32.769Z,23.38
2023-05-05T11:44:14.624Z,23.50
2023-05-05T11:47:04.468Z,23.53
2023-05-05T11:49:33.008Z,22.49
2023-05-05T11:52:03.602Z,22.37
2023-05-05T11:54:31.883Z,22.62
2023-05-05T11:57:07.832Z,23.17
2023-05-05T11:59:37.562Z,23.17
2023-05-05T12:02:05.505Z,23.30
2023-05-05T12:04:34.891Z,23.33
2023-05-05T12:07:02.452Z,23.15
2023-05-05T12:09:30.121Z,23.36
2023-05-05T12:11:59.785Z,23.32
2023-05-05T12:14:27.766Z,23.25
2023-05-05T12:16:56.154Z,22.90
2023-05-05T12:19:24.766Z,23.03
2023-05-05T12:21:54.308Z,23.33
2023-05-05T12:24:21.778Z,23.37
2023-05-05T12:26:49.345Z,23.34
2023-05-05T12:29:28.972Z,23.46
2023-05-05T12:31:58.160Z,23.81
2023-05-05T12:34:26.452Z,23.58
2023-05-05T12:36:53.759Z,23.42
2023-05-05T12:39:21.513Z,23.33
2023-05-05T12:41:49.363Z,22.64
2023-05-05T12:47:49.892Z,22.69
2023-05-05T12:50:32.749Z,23.01
2023-05-05T12:53:00.146Z,22.51
2023-05-05T12:55:37.680Z,22.62
2023-05-05T12:58:05.070Z,22.56
2023-05-05T13:00:32.640Z,22.83
2023-05-05T13:03:00.150Z,23.22
2023-05-05T13:05:32.791Z,22.92
2023-05-05T13:08:00.512Z,22.57
2023-05-05T13:10:31.458Z,22.65
2023-05-05T13:12:59.148Z,22.80
2023-05-05T13:15:27.649Z,22.94
2023-05-05T13:18:01.873Z,23.21
2023-05-05T13:20:29.690Z,23.26
2023-05-05T13:22:57.448Z,23.31
2023-05-05T13:25:25.197Z,23.28
2023-05-05T13:27:53.099Z,23.24
2023-05-05T13:30:20.936Z,23.34
2023-05-05T13:32:48.356Z,23.70
2023-05-05T13:35:17.272Z,23.63
2023-05-05T13:37:46.750Z,24.01
2023-05-05T13:40:14.298Z,24.18
2023-05-05T13:42:42.035Z,24.02
2023-05-05T13:45:10.053Z,23.80
2023-05-05T13:47:38.112Z,23.30
2023-05-05T13:50:06.335Z,23.26
2023-05-05T13:52:33.927Z,23.25
2023-05-05T13:55:01.458Z,23.18
2023-05-05T13:57:29.339Z,23.41
2023-05-05T13:59:56.903Z,23.37
2023-05-05T14:02:24.199Z,23.45
2023-05-05T14:04:51.829Z,23.59
2023-05-05T14:07:19.170Z,23.75
2023-05-05T14:09:46.392Z,23.89
2023-05-05T14:12:14.046Z,23.66
2023-05-05T14:14:41.404Z,23.75
2023-05-05T14:17:08.922Z,23.73
2023-05-05T14:19:36.624Z,23.87
2023-05-05T14:22:04.267Z,23.73
2023-05-05T14:24:31.574Z,23.80
2023-05-05T14:26:59.041Z,23.94
2023-05-05T14:29:27.719Z,23.35
2023-05-05T14:31:55.030Z,23.54
2023-05-05T14:34:23.064Z,23.52
2023-05-05T14:36:50.923Z,23.39
2023-05-05T14:39:18.333Z,23.37
2023-05-05T14:41:46.635Z,23.23
2023-05-05T14:44:14.084Z,23.43
2023-05-05T14:46:41.738Z,23.37
2023-05-05T14:49:10.244Z,23.51
2023-05-05T14:51:37.531Z,23.50
2023-05-05T14:54:09.322Z,23.17
2023-05-05T14:56:42.176Z,22.94
2023-05-05T14:59:09.948Z,23.02
2023-05-05T15:01:37.391Z,23.19
2023-05-05T15:04:05.465Z,23.27
2023-05-05T15:06:32.878Z,23.39
2023-05-05T15:09:02.111Z,23.51
2023-05-05T15:11:29.821Z,23.36
2023-05-05T15:13:57.311Z,23.39
2023-05-05T15:16:24.887Z,23.26
2023-05-05T15:18:52.769Z,23.22
2023-05-05T15:21:23.250Z,23.22
2023-05-05T15:23:50.822Z,23.33
2023-05-05T15:26:18.829Z,23.40
2023-05-05T15:28:48.197Z,23.18
2023-05-05T15:31:17.157Z,22.48
2023-05-05T15:33:46.853Z,22.60
2023-05-05T15:36:22.894Z,22.73
2023-05-05T15:38:51.038Z,22.78
2023-05-05T15:41:18.573Z,22.93
2023-05-05T15:43:45.965Z,22.82
2023-05-05T15:46:13.707Z,22.35
2023-05-05T15:48:41.335Z,22.66
2023-05-05T15:51:08.798Z,22.70
2023-05-05T15:53:36.553Z,22.65
2023-05-05T15:56:06.270Z,22.65
2023-05-05T15:58:33.788Z,22.67
2023-05-05T16:01:11.966Z,22.83
2023-05-05T16:03:43.552Z,22.74
2023-05-05T16:06:13.924Z,22.58
2023-05-05T16:08:41.689Z,22.54
2023-05-05T16:11:09.996Z,22.45
2023-05-05T16:13:39.243Z,22.74
2023-05-05T16:16:07.184Z,22.73
2023-05-05T16:18:34.433Z,22.48
2023-05-05T16:21:02.683Z,22.53
2023-05-05T16:23:30.582Z,22.58
2023-05-05T16:25:57.942Z,22.59
2023-05-05T16:28:26.105Z,22.18
2023-05-05T16:30:53.913Z,22.10
2023-05-05T16:33:21.269Z,22.41
2023-05-05T16:35:48.929Z,22.45
2023-05-05T16:38:16.787Z,22.45
2023-05-05T16:40:44.563Z,22.50
2023-05-05T16:43:12.054Z,22.50
2023-05-05T16:45:39.685Z,22.43
2023-05-05T16:48:09.066Z,22.52
2023-05-05T16:50:37.351Z,22.40
2023-05-05T16:53:09.079Z,22.38
2023-05-05T16:55:37.000Z,22.38
2023-05-05T16:58:04.552Z,22.24
2023-05-05T17:00:31.823Z,22.16
2023-05-05T17:02:59.279Z,22.13
2023-05-05T17:05:27.056Z,21.95
2023-05-05T17:07:54.558Z,21.88
2023-05-05T17:10:21.996Z,21.82
2023-05-05T17:12:49.794Z,21.70
2023-05-05T17:15:17.387Z,21.76
2023-05-05T17:17:44.710Z,21.70
2023-05-05T17:20:14.156Z,21.61
2023-05-05T17:22:41.823Z,21.54
2023-05-05T17:25:10.087Z,21.46
2023-05-05T17:27:38.459Z,21.35
2023-05-05T17:30:06.747Z,21.20
2023-05-05T17:32:34.032Z,21.18
2023-05-05T17:35:01.866Z,21.05
2023-05-05T17:37:29.519Z,20.96
2023-05-05T17:39:56.845Z,20.80
2023-05-05T17:42:27.069Z,20.84
2023-05-05T17:44:54.302Z,20.71
2023-05-05T17:47:22.540Z,20.42
2023-05-05T17:49:51.868Z,20.23
2023-05-05T17:52:19.247Z,20.22
2023-05-05T17:54:46.846Z,20.04
2023-05-05T17:57:16.760Z,19.90
2023-05-05T17:59:44.666Z,19.82
2023-05-05T18:02:12.160Z,19.70
2023-05-05T18:04:39.953Z,19.50
2023-05-05T18:07:07.848Z,19.30
2023-05-05T18:09:35.060Z,19.15
2023-05-05T18:12:03.758Z,19.00
2023-05-05T18:14:32.970Z,18.88
2023-05-05T18:17:00.233Z,18.77
2023-05-05T18:19:27.835Z,18.74
2023-05-05T18:21:55.473Z,18.61
2023-05-05T18:24:23.004Z,18.55
2023-05-05T18:26:52.073Z,18.45
2023-05-05T18:29:21.603Z,18.52
2023-05-05T18:31:51.903Z,18.43
2023-05-05T18:34:20.699Z,18.31
2023-05-05T18:36:50.067Z,18.23
2023-05-05T18:39:17.936Z,18.14
2023-05-05T18:41:45.810Z,18.07
2023-05-05T18:44:13.031Z,18.03
2023-05-05T18:46:40.973Z,18.02
2023-05-05T18:49:10.858Z,17.93
2023-05-05T18:51:41.531Z,17.83
2023-05-05T18:54:10.677Z,17.75
2023-05-05T18:56:37.979Z,17.69
2023-05-05T18:59:05.286Z,17.66
2023-05-05T19:01:33.009Z,17.56
2023-05-05T19:04:00.895Z,17.52
2023-05-05T19:06:28.321Z,17.46
2023-05-05T19:08:56.912Z,17.32
2023-05-05T19:11:25.494Z,17.18
2023-05-05T19:13:52.984Z,17.12
2023-05-05T19:16:21.078Z,17.09
2023-05-05T19:18:48.793Z,17.00
2023-05-05T19:21:16.303Z,16.86
2023-05-05T19:23:45.478Z,16.83
2023-05-05T19:26:14.047Z,16.79
2023-05-05T19:28:41.389Z,16.65
2023-05-05T19:31:09.133Z,16.58
2023-05-05T19:33:36.661Z,16.49
2023-05-05T19:36:04.221Z,16.38
2023-05-05T19:38:32.018Z,16.34
2023-05-05T19:40:59.268Z,16.34
2023-05-05T19:43:26.637Z,16.25
2023-05-05T19:45:54.394Z,16.19
2023-05-05T19:48:22.436Z,16.13
2023-05-05T19:50:49.915Z,16.06
2023-05-05T19:53:17.799Z,16.03
2023-05-05T19:55:45.046Z,16.00
2023-05-05T19:58:12.738Z,16.00
2023-05-05T20:00:43.064Z,15.91
2023-05-05T20:03:11.204Z,15.79
2023-05-05T20:05:38.690Z,15.73
2023-05-05T20:08:06.306Z,15.70
2023-05-05T20:10:34.654Z,15.61
2023-05-05T20:13:01.993Z,15.61
2023-05-05T20:15:30.672Z,15.59
2023-05-05T20:17:58.988Z,15.54
2023-05-05T20:20:26.415Z,15.59
2023-05-05T20:22:53.837Z,15.55
2023-05-05T20:25:28.078Z,15.48
2023-05-05T20:27:55.433Z,15.40
2023-05-05T20:30:23.676Z,15.35
2023-05-05T20:32:51.474Z,15.29
2023-05-05T20:35:18.802Z,15.27
2023-05-05T20:37:46.402Z,15.20
2023-05-05T20:40:14.036Z,15.23
2023-05-05T20:42:41.267Z,15.25
2023-05-05T20:45:10.634Z,15.25
2023-05-05T20:47:38.340Z,15.12
2023-05-05T20:50:06.510Z,15.02
2023-05-05T20:52:34.765Z,15.00
2023-05-05T20:55:02.259Z,15.02
2023-05-05T20:57:29.601Z,15.04
2023-05-05T20:59:56.893Z,14.99
2023-05-05T21:02:32.085Z,15.02
2023-05-05T21:05:03.141Z,14.94
2023-05-05T21:07:32.511Z,14.87
2023-05-05T21:10:00.901Z,14.74
2023-05-05T21:12:29.588Z,14.68
2023-05-05T21:14:59.951Z,14.62
2023-05-05T21:17:27.624Z,14.56
2023-05-05T21:19:55.362Z,14.49
2023-05-05T21:22:22.975Z,14.39
2023-05-05T21:24:51.281Z,14.41
2023-05-05T21:27:18.637Z,14.29
2023-05-05T21:29:46.438Z,14.20
2023-05-05T21:32:13.651Z,14.16
2023-05-05T21:34:41.029Z,14.18
2023-05-05T21:37:08.526Z,14.14
2023-05-05T21:39:35.779Z,14.08
2023-05-05T21:42:03.154Z,14.05
2023-05-05T21:44:30.868Z,13.95
2023-05-05T21:46:57.962Z,13.98
2023-05-05T21:49:25.360Z,13.94
2023-05-05T21:51:52.808Z,13.85
2023-05-05T21:57:50.872Z,13.79
2023-05-05T22:00:18.482Z,13.80
2023-05-05T22:02:46.085Z,13.73
2023-05-05T22:05:13.518Z,13.50
2023-05-05T22:07:40.902Z,13.39
2023-05-05T22:10:09.186Z,13.35
2023-05-05T22:12:36.426Z,13.17
2023-05-05T22:15:03.796Z,13.18
2023-05-05T22:17:31.300Z,13.13
2023-05-05T22:19:58.528Z,13.01
2023-05-05T22:25:57.019Z,13.06
2023-05-05T22:28:24.564Z,12.95
2023-05-05T22:30:52.035Z,12.95
2023-05-05T22:33:19.249Z,12.92
2023-05-05T22:35:46.798Z,12.86
2023-05-05T22:38:14.164Z,12.83
2023-05-05T22:40:41.416Z,12.78
2023-05-05T22:43:08.966Z,12.76
2023-05-05T22:45:36.164Z,12.66
2023-05-05T22:48:03.887Z,12.60
2023-05-05T22:50:31.654Z,12.58
2023-05-05T22:52:58.901Z,12.60
2023-05-05T22:55:26.857Z,12.54
2023-05-05T22:57:54.462Z,12.45
2023-05-05T23:00:21.591Z,12.41
2023-05-05T23:02:49.049Z,12.33
2023-05-05T23:05:16.867Z,12.29
2023-05-05T23:07:44.117Z,12.26
2023-05-05T23:10:11.532Z,12.23
2023-05-05T23:12:39.051Z,12.17
2023-05-05T23:15:08.203Z,12.18
2023-05-05T23:17:35.687Z,12.17
2023-05-05T23:20:04.396Z,12.10
2023-05-05T23:22:31.835Z,12.11
2023-05-05T23:24:59.081Z,11.98
2023-05-05T23:27:26.636Z,12.07
2023-05-05T23:29:53.895Z,12.15
2023-05-05T23:32:21.427Z,12.09
2023-05-05T23:34:49.234Z,12.20
2023-05-05T23:37:16.420Z,12.09
2023-05-05T23:39:43.615Z,12.08
2023-05-05T23:42:11.318Z,12.14
2023-05-05T23:44:38.527Z,12.16
2023-05-05T23:47:06.201Z,12.05
2023-05-05T23:49:33.657Z,12.03
2023-05-05T23:52:00.965Z,12.10
2023-05-05T23:54:28.170Z,11.99
2023-05-05T23:56:55.647Z,11.92
2023-05-05T23:59:22.992Z,11.89
